sensor_id;sensor_type;location;lat;lon;timestamp;P1;durP1;ratioP1;P2;durP2;ratioP2
21430;SDS011;10876;49.038;10.608;2023-06-22T00:00:59;12.95;;;7.95;;
21430;SDS011;10876;49.038;10.608;2023-06-22T00:03:28;12.85;;;7.85;;
21430;SDS011;10876;49.038;10.608;2023-06-22T00:05:54;14.95;;;8.57;;
21430;SDS011;10876;49.038;10.608;2023-06-22T00:08:21;17.50;;;8.75;;
21430;SDS011;10876;49.038;10.608;2023-06-22T00:10:49;19.63;;;9.20;;
21430;SDS011;10876;49.038;10.608;2023-06-22T00:13:16;13.57;;;8.85;;
21430;SDS011;10876;49.038;10.608;2023-06-22T00:15:43;15.27;;;9.40;;
21430;SDS011;10876;49.038;10.608;2023-06-22T00:18:10;12.00;;;8.45;;
21430;SDS011;10876;49.038;10.608;2023-06-22T00:20:38;13.27;;;9.07;;
21430;SDS011;10876;49.038;10.608;2023-06-22T00:23:05;14.85;;;9.25;;
21430;SDS011;10876;49.038;10.608;2023-06-22T00:25:33;14.63;;;9.50;;
21430;SDS011;10876;49.038;10.608;2023-06-22T00:28:02;15.15;;;9.30;;
21430;SDS011;10876;49.038;10.608;2023-06-22T00:30:29;17.33;;;9.32;;
21430;SDS011;10876;49.038;10.608;2023-06-22T00:32:57;14.85;;;9.48;;
21430;SDS011;10876;49.038;10.608;2023-06-22T00:35:24;16.95;;;10.27;;
21430;SDS011;10876;49.038;10.608;2023-06-22T00:37:54;18.00;;;11.57;;
21430;SDS011;10876;49.038;10.608;2023-06-22T00:40:25;24.67;;;10.93;;
21430;SDS011;10876;49.038;10.608;2023-06-22T00:42:52;17.02;;;10.98;;
21430;SDS011;10876;49.038;10.608;2023-06-22T00:45:21;16.20;;;10.52;;
21430;SDS011;10876;49.038;10.608;2023-06-22T00:47:48;18.27;;;11.23;;
21430;SDS011;10876;49.038;10.608;2023-06-22T00:50:16;17.45;;;11.45;;
21430;SDS011;10876;49.038;10.608;2023-06-22T00:52:46;20.85;;;11.73;;
21430;SDS011;10876;49.038;10.608;2023-06-22T00:55:14;17.75;;;11.68;;
21430;SDS011;10876;49.038;10.608;2023-06-22T00:57:45;16.63;;;10.70;;
21430;SDS011;10876;49.038;10.608;2023-06-22T01:00:13;15.88;;;10.85;;
21430;SDS011;10876;49.038;10.608;2023-06-22T01:02:43;16.25;;;10.52;;
21430;SDS011;10876;49.038;10.608;2023-06-22T01:05:14;15.98;;;10.52;;
21430;SDS011;10876;49.038;10.608;2023-06-22T01:07:42;16.15;;;10.07;;
21430;SDS011;10876;49.038;10.608;2023-06-22T01:10:21;15.68;;;10.00;;
21430;SDS011;10876;49.038;10.608;2023-06-22T01:12:55;16.70;;;9.57;;
21430;SDS011;10876;49.038;10.608;2023-06-22T01:15:28;17.20;;;9.93;;
21430;SDS011;10876;49.038;10.608;2023-06-22T01:17:59;18.58;;;10.38;;
21430;SDS011;10876;49.038;10.608;2023-06-22T01:20:30;15.05;;;9.80;;
21430;SDS011;10876;49.038;10.608;2023-06-22T01:23:02;19.05;;;9.93;;
21430;SDS011;10876;49.038;10.608;2023-06-22T01:25:37;16.70;;;10.80;;
21430;SDS011;10876;49.038;10.608;2023-06-22T01:28:24;15.65;;;9.45;;
21430;SDS011;10876;49.038;10.608;2023-06-22T01:31:06;15.20;;;9.35;;
21430;SDS011;10876;49.038;10.608;2023-06-22T01:33:35;16.45;;;9.45;;
21430;SDS011;10876;49.038;10.608;2023-06-22T01:36:05;15.27;;;9.15;;
21430;SDS011;10876;49.038;10.608;2023-06-22T01:38:33;12.38;;;8.75;;
21430;SDS011;10876;49.038;10.608;2023-06-22T01:41:01;15.48;;;9.23;;
21430;SDS011;10876;49.038;10.608;2023-06-22T01:43:29;15.30;;;9.25;;
21430;SDS011;10876;49.038;10.608;2023-06-22T01:45:59;19.25;;;9.32;;
21430;SDS011;10876;49.038;10.608;2023-06-22T01:48:29;15.60;;;9.15;;
21430;SDS011;10876;49.038;10.608;2023-06-22T01:50:57;11.10;;;8.45;;
21430;SDS011;10876;49.038;10.608;2023-06-22T01:53:24;15.02;;;9.30;;
21430;SDS011;10876;49.038;10.608;2023-06-22T01:55:51;14.80;;;9.05;;
21430;SDS011;10876;49.038;10.608;2023-06-22T01:58:18;14.50;;;9.20;;
21430;SDS011;10876;49.038;10.608;2023-06-22T02:00:48;16.15;;;9.43;;
21430;SDS011;10876;49.038;10.608;2023-06-22T02:03:21;16.17;;;8.88;;
21430;SDS011;10876;49.038;10.608;2023-06-22T02:05:54;13.43;;;8.35;;
21430;SDS011;10876;49.038;10.608;2023-06-22T02:08:25;14.60;;;9.85;;
21430;SDS011;10876;49.038;10.608;2023-06-22T02:10:56;17.17;;;9.10;;
21430;SDS011;10876;49.038;10.608;2023-06-22T02:13:25;15.65;;;9.20;;
21430;SDS011;10876;49.038;10.608;2023-06-22T02:15:52;15.27;;;9.05;;
21430;SDS011;10876;49.038;10.608;2023-06-22T02:18:21;14.75;;;9.80;;
21430;SDS011;10876;49.038;10.608;2023-06-22T02:20:47;18.17;;;10.02;;
21430;SDS011;10876;49.038;10.608;2023-06-22T02:23:14;15.15;;;9.32;;
21430;SDS011;10876;49.038;10.608;2023-06-22T02:25:41;17.33;;;8.27;;
21430;SDS011;10876;49.038;10.608;2023-06-22T02:28:09;12.95;;;8.10;;
21430;SDS011;10876;49.038;10.608;2023-06-22T02:30:36;14.68;;;9.45;;
21430;SDS011;10876;49.038;10.608;2023-06-22T02:33:03;15.35;;;10.30;;
21430;SDS011;10876;49.038;10.608;2023-06-22T02:35:31;16.55;;;10.57;;
21430;SDS011;10876;49.038;10.608;2023-06-22T02:38:00;17.98;;;10.90;;
21430;SDS011;10876;49.038;10.608;2023-06-22T02:40:27;17.10;;;11.10;;
21430;SDS011;10876;49.038;10.608;2023-06-22T02:42:55;18.33;;;9.95;;
21430;SDS011;10876;49.038;10.608;2023-06-22T02:45:23;17.90;;;10.52;;
21430;SDS011;10876;49.038;10.608;2023-06-22T02:47:49;17.13;;;10.45;;
21430;SDS011;10876;49.038;10.608;2023-06-22T02:50:16;14.18;;;9.25;;
21430;SDS011;10876;49.038;10.608;2023-06-22T02:52:44;17.63;;;9.60;;
21430;SDS011;10876;49.038;10.608;2023-06-22T02:55:11;17.13;;;10.52;;
21430;SDS011;10876;49.038;10.608;2023-06-22T02:57:38;16.48;;;10.63;;
21430;SDS011;10876;49.038;10.608;2023-06-22T03:00:09;17.20;;;10.10;;
21430;SDS011;10876;49.038;10.608;2023-06-22T03:02:42;17.27;;;11.07;;
21430;SDS011;10876;49.038;10.608;2023-06-22T03:05:09;20.67;;;10.77;;
21430;SDS011;10876;49.038;10.608;2023-06-22T03:07:38;16.98;;;10.63;;
21430;SDS011;10876;49.038;10.608;2023-06-22T03:10:08;16.92;;;10.13;;
21430;SDS011;10876;49.038;10.608;2023-06-22T03:12:36;15.52;;;10.43;;
21430;SDS011;10876;49.038;10.608;2023-06-22T03:15:04;15.88;;;10.10;;
21430;SDS011;10876;49.038;10.608;2023-06-22T03:17:32;18.13;;;10.60;;
21430;SDS011;10876;49.038;10.608;2023-06-22T03:19:59;14.85;;;9.77;;
21430;SDS011;10876;49.038;10.608;2023-06-22T03:22:26;16.75;;;9.98;;
21430;SDS011;10876;49.038;10.608;2023-06-22T03:24:52;15.25;;;10.05;;
21430;SDS011;10876;49.038;10.608;2023-06-22T03:27:21;14.90;;;9.52;;
21430;SDS011;10876;49.038;10.608;2023-06-22T03:29:47;13.95;;;10.43;;
21430;SDS011;10876;49.038;10.608;2023-06-22T03:32:14;13.45;;;9.93;;
21430;SDS011;10876;49.038;10.608;2023-06-22T03:34:41;18.33;;;10.25;;
21430;SDS011;10876;49.038;10.608;2023-06-22T03:37:12;15.85;;;9.32;;
21430;SDS011;10876;49.038;10.608;2023-06-22T03:39:39;13.90;;;9.77;;
21430;SDS011;10876;49.038;10.608;2023-06-22T03:42:06;14.82;;;9.63;;
21430;SDS011;10876;49.038;10.608;2023-06-22T03:44:35;16.98;;;10.23;;
21430;SDS011;10876;49.038;10.608;2023-06-22T03:47:01;21.15;;;11.10;;
21430;SDS011;10876;49.038;10.608;2023-06-22T03:49:28;16.55;;;10.05;;
21430;SDS011;10876;49.038;10.608;2023-06-22T03:51:55;16.75;;;10.10;;
21430;SDS011;10876;49.038;10.608;2023-06-22T03:54:22;19.63;;;9.13;;
21430;SDS011;10876;49.038;10.608;2023-06-22T03:56:48;14.65;;;10.35;;
21430;SDS011;10876;49.038;10.608;2023-06-22T03:59:15;23.83;;;10.32;;
21430;SDS011;10876;49.038;10.608;2023-06-22T04:01:43;16.65;;;10.77;;
21430;SDS011;10876;49.038;10.608;2023-06-22T04:04:10;15.45;;;10.05;;
21430;SDS011;10876;49.038;10.608;2023-06-22T04:06:37;18.48;;;10.90;;
21430;SDS011;10876;49.038;10.608;2023-06-22T04:09:05;16.70;;;10.52;;
21430;SDS011;10876;49.038;10.608;2023-06-22T04:11:32;14.38;;;10.50;;
21430;SDS011;10876;49.038;10.608;2023-06-22T04:13:59;14.48;;;9.80;;
21430;SDS011;10876;49.038;10.608;2023-06-22T04:16:25;15.68;;;10.90;;
21430;SDS011;10876;49.038;10.608;2023-06-22T04:18:53;15.73;;;10.82;;
21430;SDS011;10876;49.038;10.608;2023-06-22T04:21:20;17.13;;;11.02;;
21430;SDS011;10876;49.038;10.608;2023-06-22T04:23:47;17.70;;;10.93;;
21430;SDS011;10876;49.038;10.608;2023-06-22T04:26:14;17.58;;;10.85;;
21430;SDS011;10876;49.038;10.608;2023-06-22T04:28:41;19.42;;;11.57;;
21430;SDS011;10876;49.038;10.608;2023-06-22T04:31:07;17.50;;;11.68;;
21430;SDS011;10876;49.038;10.608;2023-06-22T04:33:34;15.43;;;10.88;;
21430;SDS011;10876;49.038;10.608;2023-06-22T04:36:02;17.52;;;10.73;;
21430;SDS011;10876;49.038;10.608;2023-06-22T04:38:30;17.70;;;11.70;;
21430;SDS011;10876;49.038;10.608;2023-06-22T04:40:58;16.67;;;11.20;;
21430;SDS011;10876;49.038;10.608;2023-06-22T04:43:26;20.27;;;12.18;;
21430;SDS011;10876;49.038;10.608;2023-06-22T04:45:55;18.35;;;12.05;;
21430;SDS011;10876;49.038;10.608;2023-06-22T04:48:22;14.38;;;10.57;;
21430;SDS011;10876;49.038;10.608;2023-06-22T04:50:48;16.42;;;10.40;;
21430;SDS011;10876;49.038;10.608;2023-06-22T04:53:16;16.40;;;10.68;;
21430;SDS011;10876;49.038;10.608;2023-06-22T04:55:43;15.77;;;10.82;;
21430;SDS011;10876;49.038;10.608;2023-06-22T04:58:14;15.00;;;10.45;;
21430;SDS011;10876;49.038;10.608;2023-06-22T05:00:41;15.32;;;10.70;;
21430;SDS011;10876;49.038;10.608;2023-06-22T05:03:09;17.73;;;10.40;;
21430;SDS011;10876;49.038;10.608;2023-06-22T05:05:36;16.45;;;10.63;;
21430;SDS011;10876;49.038;10.608;2023-06-22T05:08:03;18.40;;;11.73;;
21430;SDS011;10876;49.038;10.608;2023-06-22T05:10:33;14.32;;;10.27;;
21430;SDS011;10876;49.038;10.608;2023-06-22T05:13:00;18.55;;;11.32;;
21430;SDS011;10876;49.038;10.608;2023-06-22T05:15:26;16.10;;;10.52;;
21430;SDS011;10876;49.038;10.608;2023-06-22T05:17:55;16.25;;;10.93;;
21430;SDS011;10876;49.038;10.608;2023-06-22T05:20:23;16.20;;;10.65;;
21430;SDS011;10876;49.038;10.608;2023-06-22T05:22:50;14.50;;;10.02;;
21430;SDS011;10876;49.038;10.608;2023-06-22T05:25:16;15.02;;;11.15;;
21430;SDS011;10876;49.038;10.608;2023-06-22T05:27:45;13.05;;;9.55;;
21430;SDS011;10876;49.038;10.608;2023-06-22T05:30:11;16.63;;;9.95;;
21430;SDS011;10876;49.038;10.608;2023-06-22T05:32:38;15.38;;;9.82;;
21430;SDS011;10876;49.038;10.608;2023-06-22T05:35:05;13.55;;;9.63;;
21430;SDS011;10876;49.038;10.608;2023-06-22T05:37:32;16.42;;;10.40;;
21430;SDS011;10876;49.038;10.608;2023-06-22T05:39:59;16.10;;;9.93;;
21430;SDS011;10876;49.038;10.608;2023-06-22T05:42:25;16.48;;;10.30;;
21430;SDS011;10876;49.038;10.608;2023-06-22T05:44:54;12.98;;;9.85;;
21430;SDS011;10876;49.038;10.608;2023-06-22T05:47:20;18.83;;;10.95;;
21430;SDS011;10876;49.038;10.608;2023-06-22T05:49:48;15.68;;;10.68;;
21430;SDS011;10876;49.038;10.608;2023-06-22T05:52:14;13.48;;;9.35;;
21430;SDS011;10876;49.038;10.608;2023-06-22T05:54:41;16.65;;;10.07;;
21430;SDS011;10876;49.038;10.608;2023-06-22T05:57:08;17.20;;;10.18;;
21430;SDS011;10876;49.038;10.608;2023-06-22T05:59:34;13.77;;;9.52;;
21430;SDS011;10876;49.038;10.608;2023-06-22T06:02:03;14.77;;;9.35;;
21430;SDS011;10876;49.038;10.608;2023-06-22T06:04:30;14.27;;;9.40;;
21430;SDS011;10876;49.038;10.608;2023-06-22T06:06:57;14.93;;;8.68;;
21430;SDS011;10876;49.038;10.608;2023-06-22T06:09:23;13.25;;;9.80;;
21430;SDS011;10876;49.038;10.608;2023-06-22T06:11:50;13.50;;;9.35;;
21430;SDS011;10876;49.038;10.608;2023-06-22T06:14:16;15.82;;;9.32;;
21430;SDS011;10876;49.038;10.608;2023-06-22T06:16:43;14.20;;;9.48;;
21430;SDS011;10876;49.038;10.608;2023-06-22T06:19:11;12.57;;;9.10;;
21430;SDS011;10876;49.038;10.608;2023-06-22T06:21:38;13.80;;;8.82;;
21430;SDS011;10876;49.038;10.608;2023-06-22T06:24:05;14.13;;;9.65;;
21430;SDS011;10876;49.038;10.608;2023-06-22T06:26:32;12.82;;;8.13;;
21430;SDS011;10876;49.038;10.608;2023-06-22T06:29:00;13.52;;;9.48;;
21430;SDS011;10876;49.038;10.608;2023-06-22T06:31:27;15.07;;;9.15;;
21430;SDS011;10876;49.038;10.608;2023-06-22T06:33:55;17.38;;;9.63;;
21430;SDS011;10876;49.038;10.608;2023-06-22T06:36:23;15.25;;;9.35;;
21430;SDS011;10876;49.038;10.608;2023-06-22T06:38:50;13.43;;;9.02;;
21430;SDS011;10876;49.038;10.608;2023-06-22T06:41:17;15.13;;;8.88;;
21430;SDS011;10876;49.038;10.608;2023-06-22T06:43:46;12.25;;;8.60;;
21430;SDS011;10876;49.038;10.608;2023-06-22T06:46:12;10.77;;;7.60;;
21430;SDS011;10876;49.038;10.608;2023-06-22T06:48:39;10.82;;;7.28;;
21430;SDS011;10876;49.038;10.608;2023-06-22T06:51:06;10.85;;;7.63;;
21430;SDS011;10876;49.038;10.608;2023-06-22T06:53:36;10.52;;;6.50;;
21430;SDS011;10876;49.038;10.608;2023-06-22T06:56:04;10.43;;;6.63;;
21430;SDS011;10876;49.038;10.608;2023-06-22T06:58:31;9.10;;;6.57;;
21430;SDS011;10876;49.038;10.608;2023-06-22T07:00:58;10.52;;;7.05;;
21430;SDS011;10876;49.038;10.608;2023-06-22T07:03:24;10.23;;;7.00;;
21430;SDS011;10876;49.038;10.608;2023-06-22T07:05:51;11.77;;;7.43;;
21430;SDS011;10876;49.038;10.608;2023-06-22T07:08:18;10.60;;;7.47;;
21430;SDS011;10876;49.038;10.608;2023-06-22T07:10:46;11.27;;;6.72;;
21430;SDS011;10876;49.038;10.608;2023-06-22T07:13:12;10.68;;;7.07;;
21430;SDS011;10876;49.038;10.608;2023-06-22T07:15:39;10.73;;;6.93;;
21430;SDS011;10876;49.038;10.608;2023-06-22T07:18:06;14.88;;;8.20;;
21430;SDS011;10876;49.038;10.608;2023-06-22T07:20:32;11.68;;;7.15;;
21430;SDS011;10876;49.038;10.608;2023-06-22T07:22:59;11.68;;;7.50;;
21430;SDS011;10876;49.038;10.608;2023-06-22T07:25:26;12.30;;;7.70;;
21430;SDS011;10876;49.038;10.608;2023-06-22T07:27:58;12.75;;;7.22;;
21430;SDS011;10876;49.038;10.608;2023-06-22T07:30:26;11.18;;;6.75;;
21430;SDS011;10876;49.038;10.608;2023-06-22T07:32:53;10.75;;;7.45;;
21430;SDS011;10876;49.038;10.608;2023-06-22T07:35:20;6.50;;;4.30;;
21430;SDS011;10876;49.038;10.608;2023-06-22T07:37:47;7.82;;;5.45;;
21430;SDS011;10876;49.038;10.608;2023-06-22T07:40:13;8.48;;;4.70;;
21430;SDS011;10876;49.038;10.608;2023-06-22T07:42:40;9.02;;;5.03;;
21430;SDS011;10876;49.038;10.608;2023-06-22T07:45:09;7.53;;;4.93;;
21430;SDS011;10876;49.038;10.608;2023-06-22T07:47:35;8.82;;;4.63;;
21430;SDS011;10876;49.038;10.608;2023-06-22T07:50:02;5.63;;;4.22;;
21430;SDS011;10876;49.038;10.608;2023-06-22T07:52:30;7.30;;;3.90;;
21430;SDS011;10876;49.038;10.608;2023-06-22T07:54:57;8.15;;;3.85;;
21430;SDS011;10876;49.038;10.608;2023-06-22T07:57:24;8.95;;;4.18;;
21430;SDS011;10876;49.038;10.608;2023-06-22T07:59:57;6.55;;;4.00;;
21430;SDS011;10876;49.038;10.608;2023-06-22T08:02:25;6.82;;;4.18;;
21430;SDS011;10876;49.038;10.608;2023-06-22T08:04:52;6.03;;;3.55;;
21430;SDS011;10876;49.038;10.608;2023-06-22T08:07:18;5.88;;;3.90;;
21430;SDS011;10876;49.038;10.608;2023-06-22T08:09:46;6.97;;;3.60;;
21430;SDS011;10876;49.038;10.608;2023-06-22T08:12:13;5.25;;;3.40;;
21430;SDS011;10876;49.038;10.608;2023-06-22T08:14:41;8.93;;;4.18;;
21430;SDS011;10876;49.038;10.608;2023-06-22T08:17:08;6.38;;;3.50;;
21430;SDS011;10876;49.038;10.608;2023-06-22T08:19:37;5.07;;;3.40;;
21430;SDS011;10876;49.038;10.608;2023-06-22T08:22:04;8.23;;;3.45;;
21430;SDS011;10876;49.038;10.608;2023-06-22T08:24:31;7.22;;;3.50;;
21430;SDS011;10876;49.038;10.608;2023-06-22T08:26:58;7.88;;;3.75;;
21430;SDS011;10876;49.038;10.608;2023-06-22T08:29:25;8.73;;;3.78;;
21430;SDS011;10876;49.038;10.608;2023-06-22T08:31:51;5.35;;;3.70;;
21430;SDS011;10876;49.038;10.608;2023-06-22T08:34:18;6.70;;;3.25;;
21430;SDS011;10876;49.038;10.608;2023-06-22T08:36:49;7.97;;;4.13;;
21430;SDS011;10876;49.038;10.608;2023-06-22T08:39:16;5.97;;;3.85;;
21430;SDS011;10876;49.038;10.608;2023-06-22T08:41:43;6.95;;;3.55;;
21430;SDS011;10876;49.038;10.608;2023-06-22T08:44:10;7.20;;;3.85;;
21430;SDS011;10876;49.038;10.608;2023-06-22T08:46:36;5.82;;;3.40;;
21430;SDS011;10876;49.038;10.608;2023-06-22T08:49:05;8.30;;;2.75;;
21430;SDS011;10876;49.038;10.608;2023-06-22T08:51:32;5.32;;;2.88;;
21430;SDS011;10876;49.038;10.608;2023-06-22T08:54:01;5.95;;;2.88;;
21430;SDS011;10876;49.038;10.608;2023-06-22T08:56:28;8.52;;;2.63;;
21430;SDS011;10876;49.038;10.608;2023-06-22T08:58:55;8.23;;;2.90;;
21430;SDS011;10876;49.038;10.608;2023-06-22T09:01:21;8.32;;;3.03;;
21430;SDS011;10876;49.038;10.608;2023-06-22T09:03:49;9.52;;;3.17;;
21430;SDS011;10876;49.038;10.608;2023-06-22T09:06:20;6.70;;;3.10;;
21430;SDS011;10876;49.038;10.608;2023-06-22T09:08:47;5.55;;;2.72;;
21430;SDS011;10876;49.038;10.608;2023-06-22T09:11:15;6.30;;;2.83;;
21430;SDS011;10876;49.038;10.608;2023-06-22T09:13:42;4.90;;;3.03;;
21430;SDS011;10876;49.038;10.608;2023-06-22T09:16:09;7.78;;;3.20;;
21430;SDS011;10876;49.038;10.608;2023-06-22T09:18:36;7.53;;;3.05;;
21430;SDS011;10876;49.038;10.608;2023-06-22T09:21:03;8.27;;;3.05;;
21430;SDS011;10876;49.038;10.608;2023-06-22T09:23:30;7.90;;;3.35;;
21430;SDS011;10876;49.038;10.608;2023-06-22T09:25:57;9.32;;;3.70;;
21430;SDS011;10876;49.038;10.608;2023-06-22T09:28:25;8.25;;;3.00;;
21430;SDS011;10876;49.038;10.608;2023-06-22T09:30:52;5.97;;;3.10;;
21430;SDS011;10876;49.038;10.608;2023-06-22T09:33:23;8.70;;;3.22;;
21430;SDS011;10876;49.038;10.608;2023-06-22T09:35:49;7.57;;;3.20;;
21430;SDS011;10876;49.038;10.608;2023-06-22T09:38:16;9.05;;;3.28;;
21430;SDS011;10876;49.038;10.608;2023-06-22T09:40:43;8.60;;;3.10;;
21430;SDS011;10876;49.038;10.608;2023-06-22T09:43:10;9.27;;;3.63;;
21430;SDS011;10876;49.038;10.608;2023-06-22T09:45:38;8.50;;;3.38;;
21430;SDS011;10876;49.038;10.608;2023-06-22T09:48:05;8.95;;;3.47;;
21430;SDS011;10876;49.038;10.608;2023-06-22T09:50:32;8.10;;;3.00;;
21430;SDS011;10876;49.038;10.608;2023-06-22T09:52:58;9.98;;;3.17;;
21430;SDS011;10876;49.038;10.608;2023-06-22T09:55:25;8.52;;;3.30;;
21430;SDS011;10876;49.038;10.608;2023-06-22T09:57:52;8.30;;;3.13;;
21430;SDS011;10876;49.038;10.608;2023-06-22T10:00:20;7.07;;;2.95;;
21430;SDS011;10876;49.038;10.608;2023-06-22T10:02:48;11.18;;;3.85;;
21430;SDS011;10876;49.038;10.608;2023-06-22T10:05:15;5.88;;;3.33;;
21430;SDS011;10876;49.038;10.608;2023-06-22T10:07:42;9.32;;;3.60;;
21430;SDS011;10876;49.038;10.608;2023-06-22T10:10:09;8.65;;;3.60;;
21430;SDS011;10876;49.038;10.608;2023-06-22T10:12:37;9.80;;;3.97;;
21430;SDS011;10876;49.038;10.608;2023-06-22T10:15:07;7.95;;;3.45;;
21430;SDS011;10876;49.038;10.608;2023-06-22T10:17:34;8.48;;;3.35;;
21430;SDS011;10876;49.038;10.608;2023-06-22T10:20:03;8.20;;;3.33;;
21430;SDS011;10876;49.038;10.608;2023-06-22T10:22:36;11.80;;;3.40;;
21430;SDS011;10876;49.038;10.608;2023-06-22T10:25:03;6.55;;;3.40;;
21430;SDS011;10876;49.038;10.608;2023-06-22T10:27:30;8.07;;;4.20;;
21430;SDS011;10876;49.038;10.608;2023-06-22T10:29:56;12.68;;;4.38;;
21430;SDS011;10876;49.038;10.608;2023-06-22T10:32:23;8.65;;;3.47;;
21430;SDS011;10876;49.038;10.608;2023-06-22T10:34:50;7.53;;;3.45;;
21430;SDS011;10876;49.038;10.608;2023-06-22T10:37:18;7.43;;;3.63;;
21430;SDS011;10876;49.038;10.608;2023-06-22T10:39:44;7.75;;;3.70;;
21430;SDS011;10876;49.038;10.608;2023-06-22T10:42:11;7.70;;;3.53;;
21430;SDS011;10876;49.038;10.608;2023-06-22T10:44:38;7.22;;;3.67;;
21430;SDS011;10876;49.038;10.608;2023-06-22T10:47:06;9.55;;;3.85;;
21430;SDS011;10876;49.038;10.608;2023-06-22T10:49:33;14.10;;;3.55;;
21430;SDS011;10876;49.038;10.608;2023-06-22T10:52:00;7.05;;;3.72;;
21430;SDS011;10876;49.038;10.608;2023-06-22T10:54:28;11.32;;;4.00;;
21430;SDS011;10876;49.038;10.608;2023-06-22T10:56:55;10.82;;;3.28;;
21430;SDS011;10876;49.038;10.608;2023-06-22T10:59:21;11.68;;;3.70;;
21430;SDS011;10876;49.038;10.608;2023-06-22T11:01:48;7.65;;;3.58;;
21430;SDS011;10876;49.038;10.608;2023-06-22T11:04:15;8.88;;;3.75;;
21430;SDS011;10876;49.038;10.608;2023-06-22T11:06:42;10.13;;;4.25;;
21430;SDS011;10876;49.038;10.608;2023-06-22T11:09:09;10.23;;;3.83;;
21430;SDS011;10876;49.038;10.608;2023-06-22T11:11:37;10.23;;;4.00;;
21430;SDS011;10876;49.038;10.608;2023-06-22T11:14:04;8.07;;;3.90;;
21430;SDS011;10876;49.038;10.608;2023-06-22T11:16:30;10.18;;;4.13;;
21430;SDS011;10876;49.038;10.608;2023-06-22T11:18:57;6.55;;;3.80;;
21430;SDS011;10876;49.038;10.608;2023-06-22T11:21:24;7.80;;;3.92;;
21430;SDS011;10876;49.038;10.608;2023-06-22T11:23:50;9.07;;;4.10;;
21430;SDS011;10876;49.038;10.608;2023-06-22T11:26:17;10.23;;;4.22;;
21430;SDS011;10876;49.038;10.608;2023-06-22T11:28:45;9.65;;;4.40;;
21430;SDS011;10876;49.038;10.608;2023-06-22T11:31:12;8.68;;;3.83;;
21430;SDS011;10876;49.038;10.608;2023-06-22T11:33:39;11.40;;;4.10;;
21430;SDS011;10876;49.038;10.608;2023-06-22T11:36:06;11.35;;;4.38;;
21430;SDS011;10876;49.038;10.608;2023-06-22T11:38:32;9.38;;;4.38;;
21430;SDS011;10876;49.038;10.608;2023-06-22T11:41:01;12.13;;;3.97;;
21430;SDS011;10876;49.038;10.608;2023-06-22T11:43:27;11.38;;;4.07;;
21430;SDS011;10876;49.038;10.608;2023-06-22T11:45:55;14.00;;;4.57;;
21430;SDS011;10876;49.038;10.608;2023-06-22T11:48:23;12.98;;;4.43;;
21430;SDS011;10876;49.038;10.608;2023-06-22T11:50:50;11.82;;;4.35;;
21430;SDS011;10876;49.038;10.608;2023-06-22T11:53:16;11.00;;;4.22;;
21430;SDS011;10876;49.038;10.608;2023-06-22T11:55:43;10.38;;;4.05;;
21430;SDS011;10876;49.038;10.608;2023-06-22T11:58:10;6.30;;;3.80;;
21430;SDS011;10876;49.038;10.608;2023-06-22T12:00:37;11.50;;;4.45;;
21430;SDS011;10876;49.038;10.608;2023-06-22T12:03:06;8.98;;;3.85;;
21430;SDS011;10876;49.038;10.608;2023-06-22T12:05:36;10.32;;;4.13;;
21430;SDS011;10876;49.038;10.608;2023-06-22T12:08:03;10.02;;;3.85;;
21430;SDS011;10876;49.038;10.608;2023-06-22T12:10:30;11.23;;;3.72;;
21430;SDS011;10876;49.038;10.608;2023-06-22T12:12:57;12.63;;;4.10;;
21430;SDS011;10876;49.038;10.608;2023-06-22T12:15:25;8.80;;;3.97;;
21430;SDS011;10876;49.038;10.608;2023-06-22T12:17:52;9.90;;;3.78;;
21430;SDS011;10876;49.038;10.608;2023-06-22T12:20:20;8.93;;;4.10;;
21430;SDS011;10876;49.038;10.608;2023-06-22T12:22:46;10.38;;;4.30;;
21430;SDS011;10876;49.038;10.608;2023-06-22T12:25:16;10.55;;;3.63;;
21430;SDS011;10876;49.038;10.608;2023-06-22T12:27:43;12.10;;;4.15;;
21430;SDS011;10876;49.038;10.608;2023-06-22T12:30:10;8.10;;;4.05;;
21430;SDS011;10876;49.038;10.608;2023-06-22T12:32:36;16.08;;;4.53;;
21430;SDS011;10876;49.038;10.608;2023-06-22T12:35:03;12.93;;;4.00;;
21430;SDS011;10876;49.038;10.608;2023-06-22T12:37:33;10.07;;;4.30;;
21430;SDS011;10876;49.038;10.608;2023-06-22T12:40:00;10.73;;;4.07;;
21430;SDS011;10876;49.038;10.608;2023-06-22T12:42:28;8.85;;;4.38;;
21430;SDS011;10876;49.038;10.608;2023-06-22T12:44:55;13.80;;;4.70;;
21430;SDS011;10876;49.038;10.608;2023-06-22T12:47:22;10.27;;;4.22;;
21430;SDS011;10876;49.038;10.608;2023-06-22T12:49:48;10.73;;;4.20;;
21430;SDS011;10876;49.038;10.608;2023-06-22T12:52:15;10.57;;;4.30;;
21430;SDS011;10876;49.038;10.608;2023-06-22T12:54:43;10.55;;;4.07;;
21430;SDS011;10876;49.038;10.608;2023-06-22T12:57:10;11.20;;;4.25;;
21430;SDS011;10876;49.038;10.608;2023-06-22T12:59:36;8.70;;;3.65;;
21430;SDS011;10876;49.038;10.608;2023-06-22T13:02:03;10.80;;;4.13;;
21430;SDS011;10876;49.038;10.608;2023-06-22T13:04:30;17.02;;;3.97;;
21430;SDS011;10876;49.038;10.608;2023-06-22T13:06:57;13.40;;;4.20;;
21430;SDS011;10876;49.038;10.608;2023-06-22T13:09:24;11.77;;;4.07;;
21430;SDS011;10876;49.038;10.608;2023-06-22T13:11:52;13.07;;;4.38;;
21430;SDS011;10876;49.038;10.608;2023-06-22T13:14:19;10.43;;;4.72;;
21430;SDS011;10876;49.038;10.608;2023-06-22T13:16:45;10.07;;;4.28;;
21430;SDS011;10876;49.038;10.608;2023-06-22T13:19:12;9.63;;;3.65;;
21430;SDS011;10876;49.038;10.608;2023-06-22T13:21:39;13.77;;;3.90;;
21430;SDS011;10876;49.038;10.608;2023-06-22T13:24:07;10.60;;;4.65;;
21430;SDS011;10876;49.038;10.608;2023-06-22T13:26:36;10.48;;;4.03;;
21430;SDS011;10876;49.038;10.608;2023-06-22T13:29:05;8.70;;;3.90;;
21430;SDS011;10876;49.038;10.608;2023-06-22T13:31:31;13.65;;;4.15;;
21430;SDS011;10876;49.038;10.608;2023-06-22T13:33:58;8.23;;;3.78;;
21430;SDS011;10876;49.038;10.608;2023-06-22T13:36:25;9.13;;;3.65;;
21430;SDS011;10876;49.038;10.608;2023-06-22T13:38:51;10.07;;;3.83;;
21430;SDS011;10876;49.038;10.608;2023-06-22T13:41:18;8.63;;;4.00;;
21430;SDS011;10876;49.038;10.608;2023-06-22T13:43:45;9.75;;;4.35;;
21430;SDS011;10876;49.038;10.608;2023-06-22T13:46:13;7.55;;;4.00;;
21430;SDS011;10876;49.038;10.608;2023-06-22T13:48:39;11.30;;;4.35;;
21430;SDS011;10876;49.038;10.608;2023-06-22T13:51:09;10.45;;;4.25;;
21430;SDS011;10876;49.038;10.608;2023-06-22T13:53:35;13.75;;;4.60;;
21430;SDS011;10876;49.038;10.608;2023-06-22T13:56:02;8.88;;;3.92;;
21430;SDS011;10876;49.038;10.608;2023-06-22T13:58:29;8.77;;;3.90;;
21430;SDS011;10876;49.038;10.608;2023-06-22T14:00:56;9.88;;;3.80;;
21430;SDS011;10876;49.038;10.608;2023-06-22T14:03:24;11.15;;;4.35;;
21430;SDS011;10876;49.038;10.608;2023-06-22T14:05:51;13.52;;;4.47;;
21430;SDS011;10876;49.038;10.608;2023-06-22T14:08:21;9.73;;;3.72;;
21430;SDS011;10876;49.038;10.608;2023-06-22T14:10:48;12.82;;;3.95;;
21430;SDS011;10876;49.038;10.608;2023-06-22T14:13:15;9.48;;;3.88;;
21430;SDS011;10876;49.038;10.608;2023-06-22T14:15:42;15.35;;;4.65;;
21430;SDS011;10876;49.038;10.608;2023-06-22T14:18:09;8.45;;;4.00;;
21430;SDS011;10876;49.038;10.608;2023-06-22T14:20:37;9.73;;;6.57;;
21430;SDS011;10876;49.038;10.608;2023-06-22T14:23:05;11.30;;;4.70;;
21430;SDS011;10876;49.038;10.608;2023-06-22T14:25:31;11.15;;;4.45;;